sensor_id;sensor_type;location;lat;lon;timestamp;pressure;altitude;pressure_sealevel;temperature;humidity
65659;BME280;60181;53.258;6.932;2023-06-26T00:01:55;101379.19;;;24.72;61.46
65659;BME280;60181;53.258;6.932;2023-06-26T00:05:59;101375.09;;;24.71;61.18
65659;BME280;60181;53.258;6.932;2023-06-26T00:10:04;101370.92;;;24.71;61.07
65659;BME280;60181;53.258;6.932;2023-06-26T00:14:07;101367.74;;;24.70;61.44
65659;BME280;60181;53.258;6.932;2023-06-26T00:18:11;101363.65;;;24.71;60.83
65659;BME280;60181;53.258;6.932;2023-06-26T00:22:15;101359.87;;;24.71;60.89
65659;BME280;60181;53.258;6.932;2023-06-26T00:26:19;101355.25;;;24.71;60.87
65659;BME280;60181;53.258;6.932;2023-06-26T00:30:23;101351.03;;;24.72;60.93
65659;BME280;60181;53.258;6.932;2023-06-26T00:34:27;101346.44;;;24.71;60.96
65659;BME280;60181;53.258;6.932;2023-06-26T00:38:31;101341.68;;;24.71;60.93
65659;BME280;60181;53.258;6.932;2023-06-26T00:42:35;101335.58;;;24.70;60.79
65659;BME280;60181;53.258;6.932;2023-06-26T00:46:39;101330.07;;;24.70;60.82
65659;BME280;60181;53.258;6.932;2023-06-26T00:50:43;101324.44;;;24.69;60.72
65659;BME280;60181;53.258;6.932;2023-06-26T00:54:47;101318.94;;;24.69;60.66
65659;BME280;60181;53.258;6.932;2023-06-26T00:58:51;101312.73;;;24.68;60.66
65659;BME280;60181;53.258;6.932;2023-06-26T01:02:55;101307.30;;;24.68;60.73
65659;BME280;60181;53.258;6.932;2023-06-26T01:06:59;101301.70;;;24.68;60.55
65659;BME280;60181;53.258;6.932;2023-06-26T01:11:03;101295.94;;;24.67;60.72
65659;BME280;60181;53.258;6.932;2023-06-26T01:15:08;101289.42;;;24.66;60.84
65659;BME280;60181;53.258;6.932;2023-06-26T01:19:13;101283.32;;;24.66;61.05
65659;BME280;60181;53.258;6.932;2023-06-26T01:27:19;101272.22;;;24.64;60.60
65659;BME280;60181;53.258;6.932;2023-06-26T01:31:23;101266.78;;;24.63;60.53
65659;BME280;60181;53.258;6.932;2023-06-26T01:35:27;101260.94;;;24.62;60.58
65659;BME280;60181;53.258;6.932;2023-06-26T01:39:31;101256.66;;;24.63;60.78
65659;BME280;60181;53.258;6.932;2023-06-26T01:43:56;101252.90;;;24.62;60.86
65659;BME280;60181;53.258;6.932;2023-06-26T01:47:40;101249.24;;;24.62;60.89
65659;BME280;60181;53.258;6.932;2023-06-26T01:52:02;101245.04;;;24.61;60.85
65659;BME280;60181;53.258;6.932;2023-06-26T01:55:51;101241.36;;;24.61;60.74
65659;BME280;60181;53.258;6.932;2023-06-26T01:59:51;101238.69;;;24.61;60.69
65659;BME280;60181;53.258;6.932;2023-06-26T02:03:55;101235.60;;;24.61;60.65
65659;BME280;60181;53.258;6.932;2023-06-26T02:07:59;101231.27;;;24.61;60.61
65659;BME280;60181;53.258;6.932;2023-06-26T02:12:03;101227.51;;;24.60;60.62
65659;BME280;60181;53.258;6.932;2023-06-26T02:16:07;101224.92;;;24.59;60.62
65659;BME280;60181;53.258;6.932;2023-06-26T02:20:11;101222.85;;;24.58;60.57
65659;BME280;60181;53.258;6.932;2023-06-26T02:24:15;101219.61;;;24.58;60.56
65659;BME280;60181;53.258;6.932;2023-06-26T02:28:19;101215.21;;;24.56;60.54
65659;BME280;60181;53.258;6.932;2023-06-26T02:32:23;101210.88;;;24.55;60.59
65659;BME280;60181;53.258;6.932;2023-06-26T02:36:27;101207.53;;;24.55;60.54
65659;BME280;60181;53.258;6.932;2023-06-26T02:40:31;101204.38;;;24.54;60.48
65659;BME280;60181;53.258;6.932;2023-06-26T02:44:35;101201.95;;;24.53;60.44
65659;BME280;60181;53.258;6.932;2023-06-26T02:48:39;101199.39;;;24.52;60.39
65659;BME280;60181;53.258;6.932;2023-06-26T02:52:43;101197.41;;;24.51;60.33
65659;BME280;60181;53.258;6.932;2023-06-26T02:56:47;101196.42;;;24.50;60.25
65659;BME280;60181;53.258;6.932;2023-06-26T03:00:51;101196.34;;;24.49;60.22
65659;BME280;60181;53.258;6.932;2023-06-26T03:04:55;101194.36;;;24.48;60.21
65659;BME280;60181;53.258;6.932;2023-06-26T03:08:59;101194.38;;;24.47;60.22
65659;BME280;60181;53.258;6.932;2023-06-26T03:13:03;101193.66;;;24.46;59.95
65659;BME280;60181;53.258;6.932;2023-06-26T03:17:07;101192.54;;;24.44;60.27
65659;BME280;60181;53.258;6.932;2023-06-26T03:21:11;101191.53;;;24.44;60.21
65659;BME280;60181;53.258;6.932;2023-06-26T03:25:15;101189.88;;;24.43;60.07
65659;BME280;60181;53.258;6.932;2023-06-26T03:29:19;101188.01;;;24.41;60.15
65659;BME280;60181;53.258;6.932;2023-06-26T03:33:23;101186.81;;;24.39;60.17
65659;BME280;60181;53.258;6.932;2023-06-26T03:37:27;101187.13;;;24.36;59.86
65659;BME280;60181;53.258;6.932;2023-06-26T03:41:31;101187.02;;;24.33;59.99
65659;BME280;60181;53.258;6.932;2023-06-26T03:45:35;101188.19;;;24.30;59.85
65659;BME280;60181;53.258;6.932;2023-06-26T03:49:39;101189.50;;;24.28;59.60
65659;BME280;60181;53.258;6.932;2023-06-26T03:53:43;101191.77;;;24.27;59.30
65659;BME280;60181;53.258;6.932;2023-06-26T03:57:47;101190.95;;;24.26;59.17
65659;BME280;60181;53.258;6.932;2023-06-26T04:01:51;101190.16;;;24.28;59.08
65659;BME280;60181;53.258;6.932;2023-06-26T04:05:55;101190.19;;;24.30;58.96
65659;BME280;60181;53.258;6.932;2023-06-26T04:09:59;101190.80;;;24.33;58.93
65659;BME280;60181;53.258;6.932;2023-06-26T04:14:03;101191.52;;;24.37;58.60
65659;BME280;60181;53.258;6.932;2023-06-26T04:18:07;101192.44;;;24.42;58.38
65659;BME280;60181;53.258;6.932;2023-06-26T04:22:11;101193.02;;;24.45;58.16
65659;BME280;60181;53.258;6.932;2023-06-26T04:26:15;101191.30;;;24.47;58.42
65659;BME280;60181;53.258;6.932;2023-06-26T04:30:19;101188.81;;;24.49;58.43
65659;BME280;60181;53.258;6.932;2023-06-26T04:34:26;101187.00;;;24.52;58.26
65659;BME280;60181;53.258;6.932;2023-06-26T04:38:27;101185.78;;;24.54;58.33
65659;BME280;60181;53.258;6.932;2023-06-26T04:42:31;101186.24;;;24.56;58.27
65659;BME280;60181;53.258;6.932;2023-06-26T04:46:36;101187.25;;;24.60;58.02
65659;BME280;60181;53.258;6.932;2023-06-26T04:50:39;101188.23;;;24.63;57.98
65659;BME280;60181;53.258;6.932;2023-06-26T04:54:43;101187.87;;;24.68;57.71
65659;BME280;60181;53.258;6.932;2023-06-26T04:58:47;101187.69;;;24.73;57.54
65659;BME280;60181;53.258;6.932;2023-06-26T05:02:51;101188.36;;;24.77;57.48
65659;BME280;60181;53.258;6.932;2023-06-26T05:06:55;101192.77;;;24.78;58.47
65659;BME280;60181;53.258;6.932;2023-06-26T05:10:59;101197.86;;;24.79;58.50
65659;BME280;60181;53.258;6.932;2023-06-26T05:15:03;101199.36;;;24.78;59.25
65659;BME280;60181;53.258;6.932;2023-06-26T05:19:07;101199.01;;;24.76;59.19
65659;BME280;60181;53.258;6.932;2023-06-26T05:23:11;101199.49;;;24.74;59.47
65659;BME280;60181;53.258;6.932;2023-06-26T05:27:15;101204.05;;;24.71;59.51
65659;BME280;60181;53.258;6.932;2023-06-26T05:31:19;101210.46;;;24.69;59.62
65659;BME280;60181;53.258;6.932;2023-06-26T05:35:23;101214.53;;;24.67;59.44
65659;BME280;60181;53.258;6.932;2023-06-26T05:39:27;101218.59;;;24.65;59.81
65659;BME280;60181;53.258;6.932;2023-06-26T05:43:31;101226.84;;;24.63;60.07
65659;BME280;60181;53.258;6.932;2023-06-26T05:47:35;101232.64;;;24.62;60.54
65659;BME280;60181;53.258;6.932;2023-06-26T05:51:39;101241.39;;;24.60;60.67
65659;BME280;60181;53.258;6.932;2023-06-26T05:55:43;101250.97;;;24.55;61.33
65659;BME280;60181;53.258;6.932;2023-06-26T05:59:47;101256.92;;;24.44;62.12
65659;BME280;60181;53.258;6.932;2023-06-26T06:03:51;101262.95;;;24.32;62.23
65659;BME280;60181;53.258;6.932;2023-06-26T06:07:55;101267.50;;;24.23;62.48
65659;BME280;60181;53.258;6.932;2023-06-26T06:11:59;101272.17;;;24.16;62.14
65659;BME280;60181;53.258;6.932;2023-06-26T06:16:03;101279.75;;;24.14;62.44
65659;BME280;60181;53.258;6.932;2023-06-26T06:20:07;101286.36;;;24.14;62.23
65659;BME280;60181;53.258;6.932;2023-06-26T06:24:11;101294.45;;;24.15;62.06
65659;BME280;60181;53.258;6.932;2023-06-26T06:28:15;101303.50;;;24.18;61.82
65659;BME280;60181;53.258;6.932;2023-06-26T06:32:19;101314.54;;;24.23;61.58
65659;BME280;60181;53.258;6.932;2023-06-26T06:36:23;101326.74;;;24.29;61.30
65659;BME280;60181;53.258;6.932;2023-06-26T06:40:27;101339.21;;;24.37;61.01
65659;BME280;60181;53.258;6.932;2023-06-26T06:44:31;101347.18;;;24.44;60.86
65659;BME280;60181;53.258;6.932;2023-06-26T06:48:35;101357.03;;;24.50;60.81
65659;BME280;60181;53.258;6.932;2023-06-26T06:52:39;101365.36;;;24.55;60.66
65659;BME280;60181;53.258;6.932;2023-06-26T06:56:43;101370.87;;;24.59;60.56
65659;BME280;60181;53.258;6.932;2023-06-26T07:00:47;101377.33;;;24.63;60.34
65659;BME280;60181;53.258;6.932;2023-06-26T07:04:51;101388.44;;;24.71;59.82
65659;BME280;60181;53.258;6.932;2023-06-26T07:08:55;101399.38;;;24.80;59.60
65659;BME280;60181;53.258;6.932;2023-06-26T07:12:59;101409.32;;;24.89;59.06
65659;BME280;60181;53.258;6.932;2023-06-26T07:17:03;101418.13;;;24.99;58.90
65659;BME280;60181;53.258;6.932;2023-06-26T07:21:07;101425.89;;;25.08;58.70
65659;BME280;60181;53.258;6.932;2023-06-26T07:25:11;101432.74;;;25.20;58.01
65659;BME280;60181;53.258;6.932;2023-06-26T07:29:15;101436.43;;;25.32;57.87
65659;BME280;60181;53.258;6.932;2023-06-26T07:33:19;101439.48;;;25.42;58.03
65659;BME280;60181;53.258;6.932;2023-06-26T07:37:23;101445.25;;;25.53;57.48
65659;BME280;60181;53.258;6.932;2023-06-26T07:41:27;101452.40;;;25.66;57.17
65659;BME280;60181;53.258;6.932;2023-06-26T07:45:31;101457.86;;;25.75;57.38
65659;BME280;60181;53.258;6.932;2023-06-26T07:49:35;101461.39;;;25.75;58.20
65659;BME280;60181;53.258;6.932;2023-06-26T07:53:39;101466.04;;;25.71;58.10
65659;BME280;60181;53.258;6.932;2023-06-26T07:57:43;101472.13;;;25.66;58.04
65659;BME280;60181;53.258;6.932;2023-06-26T08:01:47;101477.66;;;25.59;58.06
65659;BME280;60181;53.258;6.932;2023-06-26T08:05:51;101484.69;;;25.52;58.03
65659;BME280;60181;53.258;6.932;2023-06-26T08:09:55;101491.30;;;25.49;57.49
65659;BME280;60181;53.258;6.932;2023-06-26T08:13:59;101496.92;;;25.46;57.63
65659;BME280;60181;53.258;6.932;2023-06-26T08:18:03;101499.63;;;25.41;57.38
65659;BME280;60181;53.258;6.932;2023-06-26T08:22:07;101505.11;;;25.38;57.08
65659;BME280;60181;53.258;6.932;2023-06-26T08:26:11;101508.69;;;25.36;56.39
65659;BME280;60181;53.258;6.932;2023-06-26T08:30:15;101514.33;;;25.31;56.39
65659;BME280;60181;53.258;6.932;2023-06-26T08:34:19;101519.31;;;25.25;56.92
65659;BME280;60181;53.258;6.932;2023-06-26T08:38:23;101524.97;;;25.19;55.38
65659;BME280;60181;53.258;6.932;2023-06-26T08:42:27;101529.14;;;25.13;56.05
65659;BME280;60181;53.258;6.932;2023-06-26T08:46:31;101532.95;;;25.10;56.01
65659;BME280;60181;53.258;6.932;2023-06-26T08:50:35;101538.34;;;25.09;55.65
65659;BME280;60181;53.258;6.932;2023-06-26T08:54:40;101544.11;;;25.09;55.77
65659;BME280;60181;53.258;6.932;2023-06-26T08:58:43;101550.45;;;25.08;55.24
65659;BME280;60181;53.258;6.932;2023-06-26T09:02:47;101554.54;;;25.07;55.77
65659;BME280;60181;53.258;6.932;2023-06-26T09:06:51;101558.56;;;25.05;55.41
65659;BME280;60181;53.258;6.932;2023-06-26T09:10:55;101562.50;;;24.99;56.07
65659;BME280;60181;53.258;6.932;2023-06-26T09:14:59;101566.16;;;24.93;56.07
65659;BME280;60181;53.258;6.932;2023-06-26T09:19:03;101569.08;;;24.93;55.14
65659;BME280;60181;53.258;6.932;2023-06-26T09:23:09;101570.90;;;24.94;55.58
65659;BME280;60181;53.258;6.932;2023-06-26T09:27:11;101574.27;;;24.93;55.71
65659;BME280;60181;53.258;6.932;2023-06-26T09:31:15;101577.00;;;24.91;55.66
65659;BME280;60181;53.258;6.932;2023-06-26T09:35:19;101582.30;;;24.90;55.42
65659;BME280;60181;53.258;6.932;2023-06-26T09:39:23;101585.10;;;24.88;55.60
65659;BME280;60181;53.258;6.932;2023-06-26T09:43:27;101588.78;;;24.89;54.83
65659;BME280;60181;53.258;6.932;2023-06-26T09:47:31;101591.74;;;24.91;54.83
65659;BME280;60181;53.258;6.932;2023-06-26T09:51:35;101596.29;;;24.91;55.38
65659;BME280;60181;53.258;6.932;2023-06-26T09:55:39;101599.06;;;24.90;54.69
65659;BME280;60181;53.258;6.932;2023-06-26T09:59:43;101605.11;;;24.93;54.21
65659;BME280;60181;53.258;6.932;2023-06-26T10:03:47;101611.13;;;24.98;54.18
65659;BME280;60181;53.258;6.932;2023-06-26T10:07:51;101614.65;;;25.02;54.57
65659;BME280;60181;53.258;6.932;2023-06-26T10:11:59;101617.28;;;25.02;54.69
65659;BME280;60181;53.258;6.932;2023-06-26T10:15:59;101619.59;;;25.04;54.40
65659;BME280;60181;53.258;6.932;2023-06-26T10:20:03;101622.81;;;25.06;54.16
65659;BME280;60181;53.258;6.932;2023-06-26T10:24:07;101626.01;;;25.05;54.18
65659;BME280;60181;53.258;6.932;2023-06-26T10:28:11;101628.70;;;25.04;54.45
65659;BME280;60181;53.258;6.932;2023-06-26T10:32:14;101632.64;;;25.00;52.95
65659;BME280;60181;53.258;6.932;2023-06-26T10:36:20;101636.05;;;24.98;53.28
65659;BME280;60181;53.258;6.932;2023-06-26T10:40:26;101640.48;;;24.93;53.61
65659;BME280;60181;53.258;6.932;2023-06-26T10:44:26;101643.58;;;24.93;53.78
65659;BME280;60181;53.258;6.932;2023-06-26T10:48:31;101646.08;;;24.90;52.58
65659;BME280;60181;53.258;6.932;2023-06-26T10:52:36;101649.24;;;24.86;53.42
65659;BME280;60181;53.258;6.932;2023-06-26T10:56:48;101650.90;;;24.86;53.44
65659;BME280;60181;53.258;6.932;2023-06-26T11:00:49;101654.10;;;24.86;53.03
65659;BME280;60181;53.258;6.932;2023-06-26T11:04:47;101657.00;;;24.88;53.25
65659;BME280;60181;53.258;6.932;2023-06-26T11:08:52;101661.41;;;24.89;53.15
65659;BME280;60181;53.258;6.932;2023-06-26T11:12:54;101666.99;;;24.88;51.44
65659;BME280;60181;53.258;6.932;2023-06-26T11:16:58;101672.86;;;24.86;52.66
65659;BME280;60181;53.258;6.932;2023-06-26T11:21:09;101676.11;;;24.82;51.23
65659;BME280;60181;53.258;6.932;2023-06-26T11:25:07;101680.69;;;24.79;52.17
65659;BME280;60181;53.258;6.932;2023-06-26T11:29:10;101685.50;;;24.77;51.72
65659;BME280;60181;53.258;6.932;2023-06-26T11:33:14;101688.48;;;24.75;51.67
65659;BME280;60181;53.258;6.932;2023-06-26T11:37:21;101689.01;;;24.73;51.25
65659;BME280;60181;53.258;6.932;2023-06-26T11:41:23;101692.07;;;24.71;51.46
65659;BME280;60181;53.258;6.932;2023-06-26T11:45:32;101696.66;;;24.69;50.46
65659;BME280;60181;53.258;6.932;2023-06-26T11:49:30;101699.77;;;24.69;50.96
65659;BME280;60181;53.258;6.932;2023-06-26T11:53:44;101701.45;;;24.69;51.47
65659;BME280;60181;53.258;6.932;2023-06-26T11:57:38;101704.07;;;24.70;50.88
65659;BME280;60181;53.258;6.932;2023-06-26T12:01:43;101705.30;;;24.69;50.91
65659;BME280;60181;53.258;6.932;2023-06-26T12:05:46;101710.35;;;24.67;50.49
65659;BME280;60181;53.258;6.932;2023-06-26T12:09:50;101714.98;;;24.66;50.08
65659;BME280;60181;53.258;6.932;2023-06-26T12:13:54;101720.93;;;24.66;50.78
65659;BME280;60181;53.258;6.932;2023-06-26T12:17:58;101725.44;;;24.67;50.57
65659;BME280;60181;53.258;6.932;2023-06-26T12:22:05;101730.36;;;24.68;50.26
65659;BME280;60181;53.258;6.932;2023-06-26T12:26:16;101734.55;;;24.67;50.12
65659;BME280;60181;53.258;6.932;2023-06-26T12:30:11;101739.76;;;24.67;50.21
65659;BME280;60181;53.258;6.932;2023-06-26T12:34:15;101745.98;;;24.66;49.53
65659;BME280;60181;53.258;6.932;2023-06-26T12:38:18;101748.99;;;24.66;50.21
65659;BME280;60181;53.258;6.932;2023-06-26T12:42:26;101751.18;;;24.64;49.34
65659;BME280;60181;53.258;6.932;2023-06-26T12:46:33;101754.69;;;24.66;49.97
65659;BME280;60181;53.258;6.932;2023-06-26T12:50:36;101758.62;;;24.65;49.32
65659;BME280;60181;53.258;6.932;2023-06-26T12:54:35;101763.61;;;24.63;48.49
65659;BME280;60181;53.258;6.932;2023-06-26T12:58:38;101769.98;;;24.61;48.56
65659;BME280;60181;53.258;6.932;2023-06-26T13:02:42;101772.06;;;24.62;48.95
65659;BME280;60181;53.258;6.932;2023-06-26T13:06:46;101773.91;;;24.63;49.65
65659;BME280;60181;53.258;6.932;2023-06-26T13:10:50;101777.84;;;24.62;49.07
65659;BME280;60181;53.258;6.932;2023-06-26T13:14:54;101780.36;;;24.61;48.87
65659;BME280;60181;53.258;6.932;2023-06-26T13:18:58;101783.56;;;24.60;48.69
65659;BME280;60181;53.258;6.932;2023-06-26T13:23:02;101785.77;;;24.60;48.98
65659;BME280;60181;53.258;6.932;2023-06-26T13:27:06;101786.10;;;24.59;48.75
65659;BME280;60181;53.258;6.932;2023-06-26T13:31:10;101787.69;;;24.60;48.71
65659;BME280;60181;53.258;6.932;2023-06-26T13:35:14;101790.49;;;24.62;49.23
65659;BME280;60181;53.258;6.932;2023-06-26T13:39:18;101792.43;;;24.61;49.50
65659;BME280;60181;53.258;6.932;2023-06-26T13:43:22;101794.30;;;24.61;49.46
65659;BME280;60181;53.258;6.932;2023-06-26T13:47:26;101797.30;;;24.62;49.94
65659;BME280;60181;53.258;6.932;2023-06-26T13:51:30;101799.80;;;24.61;50.04
65659;BME280;60181;53.258;6.932;2023-06-26T13:55:34;101802.76;;;24.59;49.52
65659;BME280;60181;53.258;6.932;2023-06-26T13:59:38;101806.11;;;24.55;49.45
65659;BME280;60181;53.258;6.932;2023-06-26T14:03:42;101808.72;;;24.53;49.63
65659;BME280;60181;53.258;6.932;2023-06-26T14:07:46;101810.21;;;24.54;49.97
65659;BME280;60181;53.258;6.932;2023-06-26T14:11:50;101812.62;;;24.55;49.92
65659;BME280;60181;53.258;6.932;2023-06-26T14:15:54;101815.23;;;24.54;50.41
65659;BME280;60181;53.258;6.932;2023-06-26T14:19:58;101817.88;;;24.51;50.62
65659;BME280;60181;53.258;6.932;2023-06-26T14:24:02;101820.51;;;24.49;50.61
65659;BME280;60181;53.258;6.932;2023-06-26T14:28:06;101824.06;;;24.46;50.44
65659;BME280;60181;53.258;6.932;2023-06-26T14:32:10;101827.09;;;24.45;50.77
65659;BME280;60181;53.258;6.932;2023-06-26T14:36:14;101831.14;;;24.43;50.29
65659;BME280;60181;53.258;6.932;2023-06-26T14:40:19;101834.44;;;24.41;50.29
65659;BME280;60181;53.258;6.932;2023-06-26T14:44:22;101838.14;;;24.38;50.30
65659;BME280;60181;53.258;6.932;2023-06-26T14:48:26;101840.41;;;24.38;50.87
65659;BME280;60181;53.258;6.932;2023-06-26T14:52:30;101843.78;;;24.36;50.76
65659;BME280;60181;53.258;6.932;2023-06-26T14:56:34;101847.42;;;24.34;50.69
65659;BME280;60181;53.258;6.932;2023-06-26T15:00:38;101849.47;;;24.31;50.36
65659;BME280;60181;53.258;6.932;2023-06-26T15:04:42;101850.56;;;24.30;50.47
65659;BME280;60181;53.258;6.932;2023-06-26T15:08:46;101853.53;;;24.27;50.49
65659;BME280;60181;53.258;6.932;2023-06-26T15:12:51;101855.24;;;24.24;50.64
65659;BME280;60181;53.258;6.932;2023-06-26T15:16:54;101857.00;;;24.25;50.93
65659;BME280;60181;53.258;6.932;2023-06-26T15:20:58;101859.20;;;24.28;51.06
65659;BME280;60181;53.258;6.932;2023-06-26T15:25:02;101863.19;;;24.29;50.96
65659;BME280;60181;53.258;6.932;2023-06-26T15:29:06;101865.62;;;24.29;50.33
65659;BME280;60181;53.258;6.932;2023-06-26T15:33:10;101867.42;;;24.28;50.62
65659;BME280;60181;53.258;6.932;2023-06-26T15:37:14;101869.16;;;24.28;49.74
65659;BME280;60181;53.258;6.932;2023-06-26T15:41:18;101870.94;;;24.28;50.30
65659;BME280;60181;53.258;6.932;2023-06-26T15:45:22;101872.85;;;24.29;50.11
65659;BME280;60181;53.258;6.932;2023-06-26T15:49:26;101875.35;;;24.28;49.75
65659;BME280;60181;53.258;6.932;2023-06-26T15:53:34;101877.20;;;24.29;50.27
65659;BME280;60181;53.258;6.932;2023-06-26T15:57:34;101879.08;;;24.31;50.55
65659;BME280;60181;53.258;6.932;2023-06-26T16:01:38;101883.40;;;24.35;50.48
65659;BME280;60181;53.258;6.932;2023-06-26T16:05:42;101884.09;;;24.40;50.48
65659;BME280;60181;53.258;6.932;2023-06-26T16:09:46;101884.48;;;24.47;50.13
65659;BME280;60181;53.258;6.932;2023-06-26T16:13:50;101885.33;;;24.54;50.05
65659;BME280;60181;53.258;6.932;2023-06-26T16:17:54;101886.10;;;24.59;50.19
65659;BME280;60181;53.258;6.932;2023-06-26T16:21:58;101887.52;;;24.65;50.15
65659;BME280;60181;53.258;6.932;2023-06-26T16:26:02;101889.42;;;24.69;50.06
65659;BME280;60181;53.258;6.932;2023-06-26T16:30:07;101890.12;;;24.74;50.36
65659;BME280;60181;53.258;6.932;2023-06-26T16:34:10;101889.90;;;24.78;51.22
65659;BME280;60181;53.258;6.932;2023-06-26T16:38:14;101891.80;;;24.80;51.32
65659;BME280;60181;53.258;6.932;2023-06-26T16:42:18;101892.92;;;24.83;51.26
65659;BME280;60181;53.258;6.932;2023-06-26T16:46:22;101893.67;;;24.85;51.30
65659;BME280;60181;53.258;6.932;2023-06-26T16:50:26;101894.95;;;24.87;51.58
65659;BME280;60181;53.258;6.932;2023-06-26T16:54:30;101896.45;;;24.89;51.58
65659;BME280;60181;53.258;6.932;2023-06-26T16:58:34;101898.94;;;24.90;51.70
65659;BME280;60181;53.258;6.932;2023-06-26T17:02:38;101900.00;;;24.92;51.82
65659;BME280;60181;53.258;6.932;2023-06-26T17:06:42;101900.33;;;24.93;51.91
65659;BME280;60181;53.258;6.932;2023-06-26T17:10:46;101900.31;;;24.94;52.19
65659;BME280;60181;53.258;6.932;2023-06-26T17:14:50;101900.58;;;24.93;52.13
65659;BME280;60181;53.258;6.932;2023-06-26T17:18:54;101902.40;;;24.94;52.10
65659;BME280;60181;53.258;6.932;2023-06-26T17:22:58;101903.75;;;24.94;52.12
65659;BME280;60181;53.258;6.932;2023-06-26T17:27:08;101904.06;;;24.95;52.05
65659;BME280;60181;53.258;6.932;2023-06-26T17:31:06;101904.41;;;24.96;52.16
65659;BME280;60181;53.258;6.932;2023-06-26T17:35:10;101905.15;;;24.96;52.19
65659;BME280;60181;53.258;6.932;2023-06-26T17:39:14;101906.16;;;24.96;52.30
65659;BME280;60181;53.258;6.932;2023-06-26T17:43:18;101909.16;;;24.97;52.37
65659;BME280;60181;53.258;6.932;2023-06-26T17:47:22;101912.32;;;24.97;52.37
65659;BME280;60181;53.258;6.932;2023-06-26T17:51:26;101915.01;;;24.98;52.43
65659;BME280;60181;53.258;6.932;2023-06-26T17:55:30;101918.34;;;24.98;52.52
65659;BME280;60181;53.258;6.932;2023-06-26T17:59:34;101921.94;;;24.99;52.53
65659;BME280;60181;53.258;6.932;2023-06-26T18:03:38;101925.97;;;25.00;52.54
65659;BME280;60181;53.258;6.932;2023-06-26T18:07:42;101928.56;;;25.00;52.71
65659;BME280;60181;53.258;6.932;2023-06-26T18:11:46;101930.74;;;25.00;52.78
65659;BME280;60181;53.258;6.932;2023-06-26T18:15:50;101933.50;;;25.00;52.86
65659;BME280;60181;53.258;6.932;2023-06-26T18:19:54;101936.25;;;25.00;52.94
65659;BME280;60181;53.258;6.932;2023-06-26T18:23:58;101939.43;;;25.00;52.97
65659;BME280;60181;53.258;6.932;2023-06-26T18:28:02;101943.39;;;25.00;53.03
65659;BME280;60181;53.258;6.932;2023-06-26T18:32:06;101948.16;;;25.00;53.08
65659;BME280;60181;53.258;6.932;2023-06-26T18:36:10;101951.34;;;25.00;53.18
65659;BME280;60181;53.258;6.932;2023-06-26T18:40:14;101955.19;;;25.00;53.15
65659;BME280;60181;53.258;6.932;2023-06-26T18:44:18;101957.87;;;25.00;53.17
65659;BME280;60181;53.258;6.932;2023-06-26T18:48:22;101960.99;;;25.00;53.24
65659;BME280;60181;53.258;6.932;2023-06-26T18:52:26;101964.53;;;25.00;53.25
65659;BME280;60181;53.258;6.932;2023-06-26T18:56:30;101967.30;;;24.99;53.32
65659;BME280;60181;53.258;6.932;2023-06-26T19:00:34;101969.97;;;24.98;53.40
65659;BME280;60181;53.258;6.932;2023-06-26T19:04:38;101972.83;;;24.98;53.52
65659;BME280;60181;53.258;6.932;2023-06-26T19:08:42;101975.44;;;24.97;53.56
65659;BME280;60181;53.258;6.932;2023-06-26T19:12:46;101977.64;;;24.96;53.63
65659;BME280;60181;53.258;6.932;2023-06-26T19:16:50;101980.27;;;24.94;53.70
65659;BME280;60181;53.258;6.932;2023-06-26T19:20:54;101982.45;;;24.93;53.76
65659;BME280;60181;53.258;6.932;2023-06-26T19:24:58;101985.00;;;24.91;53.89
65659;BME280;60181;53.258;6.932;2023-06-26T19:29:02;101987.61;;;24.89;53.93
65659;BME280;60181;53.258;6.932;2023-06-26T19:33:06;101989.56;;;24.87;54.04
65659;BME280;60181;53.258;6.932;2023-06-26T19:37:10;101991.52;;;24.85;54.14
65659;BME280;60181;53.258;6.932;2023-06-26T19:41:14;101993.31;;;24.82;54.12
65659;BME280;60181;53.258;6.932;2023-06-26T19:45:18;101995.68;;;24.80;54.26
65659;BME280;60181;53.258;6.932;2023-06-26T19:49:22;101997.72;;;24.78;54.31
65659;BME280;60181;53.258;6.932;2023-06-26T19:53:26;101999.24;;;24.76;54.31
65659;BME280;60181;53.258;6.932;2023-06-26T19:57:30;102001.20;;;24.74;54.51
65659;BME280;60181;53.258;6.932;2023-06-26T20:01:34;102004.33;;;24.71;54.48
65659;BME280;60181;53.258;6.932;2023-06-26T20:05:38;102007.87;;;24.69;54.58
65659;BME280;60181;53.258;6.932;2023-06-26T20:09:42;102010.41;;;24.67;54.32
65659;BME280;60181;53.258;6.932;2023-06-26T20:13:46;102012.27;;;24.65;54.44
65659;BME280;60181;53.258;6.932;2023-06-26T20:17:50;102014.79;;;24.63;54.89
65659;BME280;60181;53.258;6.932;2023-06-26T20:21:54;102017.50;;;24.60;55.00
65659;BME280;60181;53.258;6.932;2023-06-26T20:25:58;102019.33;;;24.55;54.97
65659;BME280;60181;53.258;6.932;2023-06-26T20:30:02;102020.47;;;24.50;54.58
65659;BME280;60181;53.258;6.932;2023-06-26T20:34:06;102021.36;;;24.45;54.54
65659;BME280;60181;53.258;6.932;2023-06-26T20:38:10;102022.81;;;24.41;54.67
65659;BME280;60181;53.258;6.932;2023-06-26T20:42:15;102024.87;;;24.38;54.28
65659;BME280;60181;53.258;6.932;2023-06-26T20:46:18;102026.33;;;24.34;54.19
65659;BME280;60181;53.258;6.932;2023-06-26T20:50:22;102027.36;;;24.31;53.91
65659;BME280;60181;53.258;6.932;2023-06-26T20:54:26;102027.55;;;24.28;53.96
65659;BME280;60181;53.258;6.932;2023-06-26T20:58:30;102027.67;;;24.25;53.89
65659;BME280;60181;53.258;6.932;2023-06-26T21:02:34;102027.94;;;24.22;53.92
65659;BME280;60181;53.258;6.932;2023-06-26T21:06:38;102029.89;;;24.19;53.72
65659;BME280;60181;53.258;6.932;2023-06-26T21:10:42;102031.87;;;24.14;53.21
65659;BME280;60181;53.258;6.932;2023-06-26T21:14:46;102034.27;;;24.09;52.96
65659;BME280;60181;53.258;6.932;2023-06-26T21:18:50;102037.47;;;24.05;52.76